createdAt,value
2023-02-23T00:00:32.652Z,81.48
2023-02-23T00:02:06.356Z,81.59
2023-02-23T00:03:38.262Z,82.44
2023-02-23T00:05:10.121Z,82.40
2023-02-23T00:06:42.673Z,83.20
2023-02-23T00:08:14.815Z,83.59
2023-02-23T00:09:47.306Z,84.16
2023-02-23T00:11:20.658Z,84.77
2023-02-23T00:12:52.682Z,84.60
2023-02-23T00:14:27.399Z,84.44
2023-02-23T00:15:59.178Z,84.05
2023-02-23T00:17:31.707Z,84.81
2023-02-23T00:19:07.951Z,84.70
2023-02-23T00:20:44.622Z,84.84
2023-02-23T00:22:16.442Z,85.80
2023-02-23T00:24:02.811Z,85.91
2023-02-23T00:25:36.570Z,85.96
2023-02-23T00:27:09.603Z,85.78
2023-02-23T00:28:44.020Z,86.06
2023-02-23T00:30:18.731Z,86.67
2023-02-23T00:31:53.441Z,86.91
2023-02-23T00:33:25.433Z,86.87
2023-02-23T00:34:58.502Z,86.58
2023-02-23T00:36:34.829Z,87.08
2023-02-23T00:38:06.712Z,87.29
2023-02-23T00:39:38.663Z,87.11
2023-02-23T00:41:14.551Z,87.72
2023-02-23T00:42:47.762Z,86.99
2023-02-23T00:44:21.849Z,87.69
2023-02-23T00:45:56.711Z,87.94
2023-02-23T00:47:28.598Z,88.63
2023-02-23T00:49:01.208Z,89.02
2023-02-23T00:50:34.913Z,88.95
2023-02-23T00:52:06.750Z,88.69
2023-02-23T00:53:38.704Z,88.23
2023-02-23T00:55:15.211Z,89.18
2023-02-23T00:56:47.888Z,89.22
2023-02-23T00:58:20.975Z,89.67
2023-02-23T00:59:53.193Z,89.32
2023-02-23T01:01:25.459Z,89.05
2023-02-23T01:02:57.209Z,89.01
2023-02-23T01:04:29.080Z,88.69
2023-02-23T01:06:06.420Z,88.62
2023-02-23T01:07:39.066Z,89.08
2023-02-23T01:09:16.977Z,88.75
2023-02-23T01:10:54.623Z,89.29
2023-02-23T01:12:26.360Z,88.81
2023-02-23T01:14:01.135Z,88.96
2023-02-23T01:15:33.219Z,89.50
2023-02-23T01:17:05.531Z,90.29
2023-02-23T01:18:39.358Z,90.08
2023-02-23T01:20:19.719Z,89.72
2023-02-23T01:21:51.955Z,89.80
2023-02-23T01:23:23.740Z,89.78
2023-02-23T01:24:55.486Z,89.65
2023-02-23T01:26:36.306Z,89.62
2023-02-23T01:28:09.042Z,89.33
2023-02-23T01:29:42.670Z,89.84
2023-02-23T01:31:15.861Z,89.82
2023-02-23T01:32:48.129Z,90.49
2023-02-23T01:34:24.181Z,90.49
2023-02-23T01:36:01.570Z,90.22
2023-02-23T01:37:41.956Z,90.29
2023-02-23T01:39:17.567Z,90.84
2023-02-23T01:40:49.336Z,90.19
2023-02-23T01:42:22.925Z,89.82
2023-02-23T01:44:07.966Z,90.20
2023-02-23T01:45:43.589Z,90.28
2023-02-23T01:47:17.218Z,90.48
2023-02-23T01:48:49.907Z,90.46
2023-02-23T01:50:25.071Z,90.97
2023-02-23T01:52:01.652Z,90.60
2023-02-23T01:53:39.598Z,90.64
2023-02-23T01:55:13.540Z,90.04
2023-02-23T01:56:58.634Z,90.60
2023-02-23T01:58:33.228Z,90.63
2023-02-23T02:00:14.071Z,90.79
2023-02-23T02:01:45.906Z,91.07
2023-02-23T02:03:28.429Z,91.17
2023-02-23T02:05:03.269Z,91.10
2023-02-23T02:06:38.019Z,90.61
2023-02-23T02:08:10.733Z,91.11
2023-02-23T02:10:04.180Z,91.14
2023-02-23T02:11:38.700Z,91.14
2023-02-23T02:13:14.954Z,90.78
2023-02-23T02:14:46.714Z,90.97
2023-02-23T02:16:52.875Z,91.34
2023-02-23T02:18:48.069Z,91.09
2023-02-23T02:20:42.915Z,90.84
2023-02-23T02:22:41.824Z,90.76
2023-02-23T02:24:34.763Z,91.26
2023-02-23T02:26:43.849Z,90.85
2023-02-23T02:28:54.783Z,90.88
2023-02-23T02:30:26.577Z,91.18
2023-02-23T02:32:29.205Z,91.33
2023-02-23T02:34:18.770Z,91.64
2023-02-23T02:36:17.775Z,91.26
2023-02-23T02:37:57.014Z,91.25
2023-02-23T02:39:38.055Z,90.96
2023-02-23T02:41:15.688Z,91.53
2023-02-23T02:42:59.461Z,91.73
2023-02-23T02:44:44.496Z,91.52
2023-02-23T02:46:41.606Z,91.37
2023-02-23T02:48:31.340Z,91.15
2023-02-23T02:50:11.608Z,91.70
2023-02-23T02:51:56.522Z,91.55
2023-02-23T02:53:41.005Z,90.98
2023-02-23T02:55:17.686Z,91.27
2023-02-23T02:56:51.917Z,91.38
2023-02-23T02:58:25.647Z,91.10
2023-02-23T03:00:17.326Z,91.13
2023-02-23T03:02:07.564Z,90.79
2023-02-23T03:04:01.928Z,91.00
2023-02-23T03:06:08.593Z,90.90
2023-02-23T03:08:27.872Z,89.31
2023-02-23T03:10:33.074Z,89.74
2023-02-23T03:12:35.326Z,90.14
2023-02-23T03:15:08.734Z,90.22
2023-02-23T03:17:24.830Z,90.61
2023-02-23T03:19:23.788Z,90.16
2023-02-23T03:21:24.144Z,90.56
2023-02-23T03:23:21.172Z,90.44
2023-02-23T03:25:37.651Z,90.84
2023-02-23T03:27:58.127Z,90.32
2023-02-23T03:30:03.706Z,89.86
2023-02-23T03:32:10.740Z,89.97
2023-02-23T03:34:13.998Z,89.89
2023-02-23T03:36:08.941Z,90.44
2023-02-23T03:38:06.035Z,90.24
2023-02-23T03:40:02.028Z,90.25
2023-02-23T03:41:54.567Z,90.28
2023-02-23T03:43:51.286Z,90.30
2023-02-23T03:45:45.239Z,90.42
2023-02-23T03:47:38.620Z,89.94
2023-02-23T03:49:31.625Z,90.50
2023-02-23T03:51:26.266Z,90.54
2023-02-23T03:53:19.892Z,90.23
2023-02-23T03:55:16.388Z,90.96
2023-02-23T03:57:10.651Z,90.71
2023-02-23T03:59:09.244Z,90.70
2023-02-23T04:01:06.632Z,90.38
2023-02-23T04:02:59.521Z,90.44
2023-02-23T04:04:51.751Z,90.69
2023-02-23T04:06:46.536Z,91.11
2023-02-23T04:08:40.282Z,90.99
2023-02-23T04:10:30.861Z,91.63
2023-02-23T04:12:33.384Z,91.64
2023-02-23T04:14:12.526Z,91.22
2023-02-23T04:15:47.637Z,91.21
2023-02-23T04:17:21.399Z,91.31
2023-02-23T04:18:53.586Z,91.44
2023-02-23T04:20:25.926Z,91.20
2023-02-23T04:21:57.794Z,91.56
2023-02-23T04:23:30.397Z,91.13
2023-02-23T04:25:02.304Z,90.44
2023-02-23T04:26:34.297Z,90.08
2023-02-23T04:28:06.093Z,90.18
2023-02-23T04:29:38.097Z,90.54
2023-02-23T04:31:09.966Z,90.83
2023-02-23T04:32:41.940Z,90.68
2023-02-23T04:34:14.422Z,90.79
2023-02-23T04:35:46.199Z,91.07
2023-02-23T04:37:18.004Z,90.87
2023-02-23T04:38:49.753Z,91.02
2023-02-23T04:40:24.190Z,91.54
2023-02-23T04:41:56.203Z,91.17
2023-02-23T04:43:28.006Z,91.19
2023-02-23T04:44:59.796Z,91.40
2023-02-23T04:46:31.717Z,91.53
2023-02-23T04:48:03.705Z,91.79
2023-02-23T04:49:35.482Z,91.59
2023-02-23T04:51:07.262Z,90.99
2023-02-23T04:52:39.760Z,91.42
2023-02-23T04:54:11.545Z,91.21
2023-02-23T04:55:43.360Z,91.29
2023-02-23T04:57:15.269Z,91.75
2023-02-23T04:58:47.075Z,91.18
2023-02-23T05:00:19.215Z,91.66
2023-02-23T05:01:51.051Z,91.57
2023-02-23T05:03:22.991Z,91.53
2023-02-23T05:04:54.664Z,91.46
2023-02-23T05:06:26.700Z,91.47
2023-02-23T05:07:58.494Z,91.42
2023-02-23T05:09:31.345Z,91.63
2023-02-23T05:11:03.117Z,91.96
2023-02-23T05:12:34.883Z,91.77
2023-02-23T05:14:06.926Z,91.16
2023-02-23T05:15:39.532Z,91.54
2023-02-23T05:17:11.423Z,91.81
2023-02-23T05:18:43.287Z,91.84
2023-02-23T05:20:16.112Z,91.78
2023-02-23T05:21:48.026Z,92.13
2023-02-23T05:23:21.997Z,92.20
2023-02-23T05:24:55.836Z,91.84
2023-02-23T05:26:29.118Z,91.90
2023-02-23T05:28:00.953Z,92.46
2023-02-23T05:29:32.756Z,92.43
2023-02-23T05:31:05.526Z,92.56
2023-02-23T05:32:37.293Z,92.23
2023-02-23T05:34:09.908Z,92.41
2023-02-23T05:35:41.856Z,92.05
2023-02-23T05:37:13.945Z,92.14
2023-02-23T05:38:46.714Z,92.39
2023-02-23T05:40:19.023Z,92.35
2023-02-23T05:41:50.963Z,92.30
2023-02-23T05:43:22.633Z,93.06
2023-02-23T05:44:54.735Z,92.77
2023-02-23T05:46:27.942Z,92.60
2023-02-23T05:48:00.125Z,92.56
2023-02-23T05:49:31.843Z,92.85
2023-02-23T05:51:09.561Z,92.85
2023-02-23T05:52:42.295Z,92.76
2023-02-23T05:54:14.176Z,92.59
2023-02-23T05:55:45.880Z,92.67
2023-02-23T05:57:17.615Z,92.51
2023-02-23T05:58:54.470Z,93.07
2023-02-23T06:00:26.153Z,93.21
2023-02-23T06:01:57.920Z,93.34
2023-02-23T06:03:29.703Z,92.91
2023-02-23T06:05:01.468Z,92.83
2023-02-23T06:06:33.270Z,92.90
2023-02-23T06:08:05.493Z,93.32
2023-02-23T06:09:37.207Z,92.79
2023-02-23T06:11:09.775Z,93.06
2023-02-23T06:12:41.552Z,93.35
2023-02-23T06:14:13.475Z,92.98
2023-02-23T06:15:45.410Z,93.09
2023-02-23T06:17:17.442Z,92.80
2023-02-23T06:18:49.171Z,93.29
2023-02-23T06:20:20.851Z,93.23
2023-02-23T06:21:55.328Z,92.71
2023-02-23T06:23:31.046Z,93.42
2023-02-23T06:25:05.053Z,93.25
2023-02-23T06:26:37.058Z,92.88
2023-02-23T06:28:09.239Z,93.13
2023-02-23T06:29:41.663Z,93.22
2023-02-23T06:31:13.380Z,92.76
2023-02-23T06:32:45.120Z,92.91
2023-02-23T06:34:20.329Z,93.30
2023-02-23T06:35:52.974Z,93.27
2023-02-23T06:37:24.699Z,93.27
2023-02-23T06:38:58.203Z,93.06
2023-02-23T06:40:30.716Z,92.97
2023-02-23T06:42:02.402Z,93.40
2023-02-23T06:43:34.132Z,92.98
2023-02-23T06:45:06.430Z,92.98
2023-02-23T06:46:38.308Z,92.94
2023-02-23T06:48:10.590Z,93.23
2023-02-23T06:49:42.594Z,93.09
2023-02-23T06:51:14.381Z,93.16
2023-02-23T06:52:46.164Z,92.65
2023-02-23T06:54:17.957Z,92.84
2023-02-23T06:55:49.646Z,92.69
2023-02-23T06:57:21.798Z,92.79
2023-02-23T06:58:53.562Z,92.92
2023-02-23T07:00:25.328Z,92.69
2023-02-23T07:01:57.217Z,92.90
2023-02-23T07:03:29.034Z,92.42
2023-02-23T07:05:00.756Z,92.35
2023-02-23T07:06:32.537Z,92.17
2023-02-23T07:08:04.737Z,92.40
2023-02-23T07:09:36.452Z,92.39
2023-02-23T07:11:18.824Z,91.85
2023-02-23T07:12:50.679Z,91.92
2023-02-23T07:14:26.866Z,92.20
2023-02-23T07:15:59.187Z,91.72
2023-02-23T07:17:30.974Z,91.82
2023-02-23T07:19:03.917Z,91.65
2023-02-23T07:20:35.759Z,91.44
2023-02-23T07:22:07.478Z,91.71
2023-02-23T07:23:39.245Z,91.31
2023-02-23T07:25:11.199Z,91.16
2023-02-23T07:26:45.874Z,90.98
2023-02-23T07:28:17.690Z,90.80
2023-02-23T07:29:49.622Z,90.21
2023-02-23T07:31:21.727Z,90.32
2023-02-23T07:32:54.292Z,89.47
2023-02-23T07:34:26.505Z,90.14
2023-02-23T07:35:58.696Z,89.93
2023-02-23T07:37:30.529Z,90.32
2023-02-23T07:39:03.127Z,90.27
2023-02-23T07:40:35.067Z,89.85
2023-02-23T07:42:06.890Z,89.88
2023-02-23T07:43:38.696Z,89.70
2023-02-23T07:45:10.984Z,89.59
2023-02-23T07:46:42.726Z,89.98
2023-02-23T07:48:15.183Z,89.78
2023-02-23T07:49:46.916Z,89.70
2023-02-23T07:51:19.291Z,88.95
2023-02-23T07:52:51.584Z,88.94
2023-02-23T07:54:25.574Z,88.78
2023-02-23T07:55:58.630Z,88.63
2023-02-23T07:57:30.330Z,87.96
2023-02-23T07:59:02.140Z,86.90
2023-02-23T08:00:34.991Z,87.00
2023-02-23T08:02:07.172Z,86.99
2023-02-23T08:03:39.380Z,86.89
2023-02-23T08:05:11.601Z,86.99
2023-02-23T08:06:43.412Z,86.98
2023-02-23T08:08:15.238Z,88.05
2023-02-23T08:09:48.656Z,88.02
2023-02-23T08:11:20.798Z,87.61
2023-02-23T08:12:52.839Z,87.58
2023-02-23T08:14:24.729Z,87.79
2023-02-23T08:15:57.008Z,87.73
2023-02-23T08:17:28.938Z,86.97
2023-02-23T08:19:01.425Z,87.31
2023-02-23T08:20:33.685Z,87.15
2023-02-23T08:22:07.732Z,86.63
2023-02-23T08:23:40.756Z,87.25
2023-02-23T08:25:12.506Z,87.24
2023-02-23T08:26:44.336Z,87.22
2023-02-23T08:28:16.339Z,86.73
2023-02-23T08:29:48.157Z,86.46
2023-02-23T08:31:22.866Z,86.80
2023-02-23T08:32:54.936Z,86.50
2023-02-23T08:34:26.724Z,85.85
2023-02-23T08:35:59.625Z,85.68
2023-02-23T08:37:31.675Z,86.38
2023-02-23T08:39:06.441Z,85.97
2023-02-23T08:40:38.152Z,85.26
2023-02-23T08:42:09.796Z,85.38
2023-02-23T08:43:41.510Z,84.55
2023-02-23T08:45:13.479Z,85.03
2023-02-23T08:46:45.930Z,84.83
2023-02-23T08:48:17.702Z,85.64
2023-02-23T08:49:50.820Z,85.21
2023-02-23T08:51:22.730Z,85.08
2023-02-23T08:52:54.617Z,84.80
2023-02-23T08:54:27.138Z,85.07
2023-02-23T08:56:00.820Z,85.00
2023-02-23T08:57:34.068Z,84.26
2023-02-23T08:59:05.829Z,84.21
2023-02-23T09:00:38.670Z,83.65
2023-02-23T09:02:13.569Z,83.24
2023-02-23T09:03:45.855Z,83.20
2023-02-23T09:05:17.905Z,83.35
2023-02-23T09:06:50.250Z,82.99
2023-02-23T09:08:22.169Z,82.41
2023-02-23T09:09:57.743Z,82.50
2023-02-23T09:11:29.549Z,81.99
2023-02-23T09:13:01.349Z,82.17
2023-02-23T09:14:33.294Z,82.12
2023-02-23T09:16:06.524Z,81.31
2023-02-23T09:17:38.882Z,80.31
2023-02-23T09:19:10.980Z,79.32
2023-02-23T09:20:44.027Z,76.81
2023-02-23T09:22:15.957Z,76.70
2023-02-23T09:23:49.858Z,75.70
2023-02-23T09:25:25.473Z,75.49
2023-02-23T09:26:57.890Z,75.07
2023-02-23T09:28:31.139Z,72.91
2023-02-23T09:30:03.196Z,71.39
2023-02-23T09:31:35.460Z,68.92
2023-02-23T09:33:07.846Z,69.38
2023-02-23T09:34:39.719Z,61.79
2023-02-23T09:36:23.799Z,55.17
2023-02-23T09:37:56.345Z,55.60
2023-02-23T09:39:37.691Z,53.80
2023-02-23T09:41:39.542Z,49.47
2023-02-23T09:43:41.068Z,44.14
2023-02-23T09:45:31.465Z,46.20
2023-02-23T09:47:03.256Z,43.72
2023-02-23T09:48:35.499Z,40.98
2023-02-23T09:50:20.638Z,41.28
2023-02-23T09:51:57.790Z,42.59
2023-02-23T09:53:48.394Z,44.43
2023-02-23T09:55:20.748Z,41.67
2023-02-23T09:56:53.263Z,41.43
2023-02-23T09:58:33.820Z,41.11
2023-02-23T10:00:18.556Z,40.13
2023-02-23T10:02:16.104Z,39.74
2023-02-23T10:03:59.858Z,39.64
2023-02-23T10:05:37.586Z,40.65
2023-02-23T10:07:21.316Z,41.20
2023-02-23T10:09:09.184Z,36.93
2023-02-23T10:11:16.974Z,35.84
2023-02-23T10:12:54.933Z,30.80
2023-02-23T10:14:49.182Z,30.08
2023-02-23T10:16:54.004Z,31.60
2023-02-23T10:18:56.492Z,34.13
2023-02-23T10:20:28.614Z,32.30
2023-02-23T10:22:07.789Z,29.10
2023-02-23T10:23:45.437Z,28.76
2023-02-23T10:25:25.580Z,25.74
2023-02-23T10:27:23.814Z,24.16
2023-02-23T10:28:58.590Z,23.76
2023-02-23T10:30:34.875Z,22.72
2023-02-23T10:32:14.061Z,23.38
2023-02-23T10:33:47.531Z,25.37
2023-02-23T10:35:21.860Z,25.23
2023-02-23T10:36:59.976Z,24.13
2023-02-23T10:38:32.025Z,25.01
2023-02-23T10:40:06.127Z,24.54
2023-02-23T10:41:38.993Z,24.80
2023-02-23T10:43:13.273Z,26.38
2023-02-23T10:44:46.004Z,22.85
2023-02-23T10:46:23.424Z,26.87
2023-02-23T10:48:02.022Z,28.71
2023-02-23T10:49:49.465Z,23.36
2023-02-23T10:51:27.018Z,23.96
2023-02-23T10:53:04.830Z,21.53
2023-02-23T10:54:47.945Z,25.83
2023-02-23T10:56:22.492Z,32.94
2023-02-23T10:58:18.333Z,39.00
2023-02-23T11:00:00.151Z,41.45
2023-02-23T11:01:41.901Z,41.48
2023-02-23T11:03:38.049Z,40.25
2023-02-23T11:05:30.416Z,42.01
2023-02-23T11:07:10.042Z,41.14
2023-02-23T11:08:41.800Z,42.19
2023-02-23T11:10:28.251Z,42.71
2023-02-23T11:12:39.632Z,43.26
2023-02-23T11:14:16.940Z,42.21
2023-02-23T11:15:50.925Z,42.50
2023-02-23T11:17:38.242Z,42.50
2023-02-23T11:19:23.373Z,42.93
2023-02-23T11:20:56.196Z,45.32
2023-02-23T11:22:31.834Z,43.35
2023-02-23T11:24:19.229Z,45.58
2023-02-23T11:25:56.306Z,45.70
2023-02-23T11:27:28.309Z,46.20
2023-02-23T11:29:11.080Z,48.82
2023-02-23T11:30:43.029Z,48.87
2023-02-23T11:32:21.884Z,48.35
2023-02-23T11:33:55.889Z,49.95
2023-02-23T11:35:31.088Z,50.46
2023-02-23T11:37:20.371Z,49.84
2023-02-23T11:39:27.522Z,51.17
2023-02-23T11:41:00.601Z,50.86
2023-02-23T11:42:33.681Z,50.29
2023-02-23T11:44:06.371Z,49.68
2023-02-23T11:45:44.763Z,50.21
2023-02-23T11:47:19.152Z,49.99
2023-02-23T11:48:56.696Z,49.77
2023-02-23T11:50:32.906Z,52.10
2023-02-23T11:52:15.697Z,52.55
2023-02-23T11:53:47.353Z,51.40
2023-02-23T11:55:20.287Z,51.52
2023-02-23T11:56:55.034Z,52.07
2023-02-23T11:58:44.622Z,52.08
2023-02-23T12:00:25.180Z,52.33
2023-02-23T12:02:05.481Z,52.91
2023-02-23T12:03:37.114Z,52.25
2023-02-23T12:05:09.043Z,52.66
2023-02-23T12:06:42.102Z,53.03
2023-02-23T12:08:27.521Z,54.12
2023-02-23T12:10:37.849Z,55.38
2023-02-23T12:12:14.136Z,54.22
2023-02-23T12:13:51.304Z,53.62
2023-02-23T12:15:34.739Z,53.77
2023-02-23T12:17:18.653Z,53.81
2023-02-23T12:19:01.297Z,53.95
2023-02-23T12:20:40.605Z,54.62
2023-02-23T12:22:35.456Z,54.24
2023-02-23T12:24:25.432Z,55.21
2023-02-23T12:26:17.930Z,54.31
2023-02-23T12:28:41.119Z,54.45
2023-02-23T12:30:23.148Z,54.92
2023-02-23T12:32:02.963Z,55.70
2023-02-23T12:33:40.381Z,54.73
2023-02-23T12:35:30.741Z,54.39
2023-02-23T12:37:20.595Z,54.20
2023-02-23T12:39:04.616Z,55.85
2023-02-23T12:40:39.042Z,54.05
2023-02-23T12:42:16.853Z,53.25
2023-02-23T12:43:54.092Z,54.88
2023-02-23T12:45:52.690Z,55.94
2023-02-23T12:47:40.605Z,56.00
2023-02-23T12:49:35.583Z,55.69
2023-02-23T12:51:19.199Z,55.34
2023-02-23T12:53:08.219Z,55.20
2023-02-23T12:54:40.139Z,55.99
2023-02-23T12:56:14.712Z,55.77
2023-02-23T12:57:46.359Z,55.57
2023-02-23T12:59:43.082Z,55.76
2023-02-23T13:01:22.761Z,53.36
2023-02-23T13:03:33.191Z,54.52
2023-02-23T13:05:27.134Z,55.73
2023-02-23T13:07:14.768Z,55.27
2023-02-23T13:08:57.210Z,54.41
2023-02-23T13:10:41.172Z,54.25
2023-02-23T13:12:25.449Z,54.54
2023-02-23T13:14:11.196Z,54.56
2023-02-23T13:16:19.920Z,54.95
2023-02-23T13:18:01.651Z,54.51
2023-02-23T13:19:47.801Z,54.33
2023-02-23T13:21:41.742Z,54.94
2023-02-23T13:23:34.889Z,56.17
2023-02-23T13:25:38.650Z,54.70
2023-02-23T13:27:18.728Z,53.62
2023-02-23T13:29:11.886Z,54.14
2023-02-23T13:30:47.465Z,54.68
2023-02-23T13:32:20.976Z,55.36
2023-02-23T13:33:56.362Z,56.14
2023-02-23T13:35:35.365Z,56.54
2023-02-23T13:37:09.589Z,57.78
2023-02-23T13:38:44.221Z,58.17
2023-02-23T13:40:29.407Z,58.55
2023-02-23T13:42:19.053Z,59.24
2023-02-23T13:44:10.547Z,58.77
2023-02-23T13:45:49.071Z,59.79
2023-02-23T13:47:39.299Z,61.29
2023-02-23T13:49:39.194Z,59.65
2023-02-23T13:51:35.756Z,60.33
2023-02-23T13:53:37.238Z,59.79
2023-02-23T13:55:48.191Z,59.12
2023-02-23T13:57:22.684Z,60.38
2023-02-23T13:58:59.032Z,60.79
2023-02-23T14:00:32.594Z,60.89
2023-02-23T14:02:23.851Z,61.95
2023-02-23T14:04:05.102Z,61.15
2023-02-23T14:05:44.365Z,60.12
2023-02-23T14:07:31.391Z,59.75
2023-02-23T14:09:13.294Z,61.44
2023-02-23T14:10:45.451Z,61.86
2023-02-23T14:12:25.239Z,62.50
2023-02-23T14:14:02.714Z,61.91
2023-02-23T14:15:40.398Z,62.95
2023-02-23T14:17:15.520Z,63.36
2023-02-23T14:18:56.189Z,60.61
2023-02-23T14:20:40.287Z,60.77
2023-02-23T14:22:22.087Z,59.86
2023-02-23T14:24:23.253Z,59.57
2023-02-23T14:26:15.836Z,59.73
2023-02-23T14:28:00.710Z,62.07
2023-02-23T14:29:43.857Z,60.07
2023-02-23T14:31:20.574Z,60.75
2023-02-23T14:32:54.013Z,60.27
2023-02-23T14:34:45.563Z,60.89
2023-02-23T14:36:26.491Z,59.61
2023-02-23T14:38:05.343Z,60.05
2023-02-23T14:39:37.438Z,60.30
2023-02-23T14:41:11.956Z,58.84
2023-02-23T14:42:51.274Z,59.34
2023-02-23T14:44:36.497Z,60.82
2023-02-23T14:46:17.031Z,60.63
2023-02-23T14:47:51.362Z,60.42
2023-02-23T14:49:27.872Z,60.79
2023-02-23T14:51:20.215Z,60.30
2023-02-23T14:52:54.433Z,59.61
2023-02-23T14:54:40.400Z,59.02
2023-02-23T14:56:32.566Z,59.28
2023-02-23T14:58:36.481Z,58.59
2023-02-23T15:00:15.159Z,59.22
2023-02-23T15:01:47.412Z,59.42
2023-02-23T15:03:19.192Z,60.54
2023-02-23T15:04:51.802Z,59.93
2023-02-23T15:06:23.680Z,59.46
2023-02-23T15:08:00.239Z,59.90
2023-02-23T15:09:39.673Z,59.37
2023-02-23T15:11:14.116Z,59.57
2023-02-23T15:12:46.885Z,59.59
2023-02-23T15:14:27.487Z,59.63
2023-02-23T15:16:35.094Z,59.29
2023-02-23T15:18:06.900Z,59.55
2023-02-23T15:19:39.474Z,60.24
2023-02-23T15:21:13.986Z,59.82
2023-02-23T15:22:51.748Z,58.97
2023-02-23T15:24:27.872Z,58.72
2023-02-23T15:25:59.571Z,59.28
2023-02-23T15:27:43.112Z,59.88
2023-02-23T15:29:17.858Z,59.62
2023-02-23T15:30:50.893Z,60.52
2023-02-23T15:32:25.409Z,60.10
2023-02-23T15:33:57.834Z,60.37
2023-02-23T15:35:31.309Z,59.64
2023-02-23T15:37:07.511Z,59.73
2023-02-23T15:38:51.936Z,59.62
2023-02-23T15:40:26.656Z,60.14
2023-02-23T15:41:58.375Z,59.87
2023-02-23T15:43:33.037Z,60.02
2023-02-23T15:45:16.814Z,61.50
2023-02-23T15:46:57.833Z,62.39
2023-02-23T15:48:48.670Z,61.33
2023-02-23T15:50:37.024Z,62.65
2023-02-23T15:52:17.958Z,62.38
2023-02-23T15:53:49.979Z,61.98
2023-02-23T15:55:26.458Z,62.52
2023-02-23T15:57:04.024Z,62.89
2023-02-23T15:58:47.759Z,63.68
2023-02-23T16:00:32.705Z,63.58
2023-02-23T16:02:16.744Z,64.37
2023-02-23T16:04:07.407Z,64.39
2023-02-23T16:05:53.980Z,64.97
2023-02-23T16:07:35.697Z,65.06
2023-02-23T16:09:21.064Z,64.90
2023-02-23T16:11:04.637Z,65.01
2023-02-23T16:12:39.032Z,64.91
2023-02-23T16:14:16.838Z,65.96
2023-02-23T16:15:50.058Z,66.22
2023-02-23T16:17:27.318Z,67.35
2023-02-23T16:19:01.852Z,67.24
2023-02-23T16:20:34.844Z,67.75
2023-02-23T16:22:17.441Z,68.58
2023-02-23T16:23:53.127Z,69.12
2023-02-23T16:25:27.048Z,69.05
2023-02-23T16:27:00.929Z,69.44
2023-02-23T16:28:34.534Z,69.59
2023-02-23T16:30:31.790Z,69.22
2023-02-23T16:32:16.989Z,69.27
2023-02-23T16:33:57.400Z,69.21
2023-02-23T16:35:45.413Z,69.45
2023-02-23T16:37:25.303Z,69.33
2023-02-23T16:39:02.526Z,70.18
2023-02-23T16:40:34.135Z,70.23
2023-02-23T16:42:05.788Z,70.38
2023-02-23T16:43:37.666Z,70.32
2023-02-23T16:45:15.449Z,70.83
2023-02-23T16:47:01.929Z,71.36
2023-02-23T16:48:33.650Z,71.36
2023-02-23T16:50:22.488Z,71.89
2023-02-23T16:51:54.313Z,72.27
2023-02-23T16:53:26.357Z,71.71
2023-02-23T16:54:58.021Z,72.33
2023-02-23T16:56:30.655Z,72.58
2023-02-23T16:58:04.229Z,73.01
2023-02-23T16:59:36.116Z,72.99
2023-02-23T17:01:07.871Z,73.86
2023-02-23T17:02:39.750Z,73.10
2023-02-23T17:04:16.214Z,72.86
2023-02-23T17:05:48.802Z,72.84
2023-02-23T17:07:23.169Z,72.10
2023-02-23T17:08:58.928Z,72.91
2023-02-23T17:10:33.636Z,74.17
2023-02-23T17:12:05.717Z,74.33
2023-02-23T17:13:37.710Z,75.96
2023-02-23T17:15:17.821Z,75.94
2023-02-23T17:16:51.489Z,76.46
2023-02-23T17:18:26.205Z,74.68
2023-02-23T17:19:58.253Z,75.56
2023-02-23T17:21:31.832Z,75.86
2023-02-23T17:23:04.098Z,75.64
2023-02-23T17:24:36.068Z,76.46
2023-02-23T17:26:09.897Z,76.09
2023-02-23T17:27:41.848Z,75.94
2023-02-23T17:29:13.670Z,74.77
2023-02-23T17:30:46.560Z,73.15
2023-02-23T17:32:18.514Z,73.27
2023-02-23T17:33:50.653Z,73.26
2023-02-23T17:35:22.730Z,73.40
2023-02-23T17:36:55.052Z,72.94
2023-02-23T17:38:33.903Z,72.15
2023-02-23T17:40:08.557Z,72.76
2023-02-23T17:41:40.574Z,73.03
2023-02-23T17:43:12.240Z,73.45
2023-02-23T17:44:44.138Z,73.29
2023-02-23T17:46:15.734Z,74.17
2023-02-23T17:47:47.446Z,73.63
2023-02-23T17:49:19.078Z,72.64
2023-02-23T17:51:02.659Z,73.41
2023-02-23T17:52:34.359Z,73.18
2023-02-23T17:54:06.349Z,73.96
2023-02-23T17:55:38.048Z,74.25
2023-02-23T17:57:09.832Z,74.51
2023-02-23T17:58:41.780Z,75.68
2023-02-23T18:00:15.218Z,77.31
2023-02-23T18:01:49.324Z,78.06
2023-02-23T18:03:21.125Z,78.82
2023-02-23T18:04:53.197Z,80.22
2023-02-23T18:06:24.999Z,80.65
2023-02-23T18:07:56.760Z,81.32
2023-02-23T18:09:28.470Z,80.71
2023-02-23T18:11:01.000Z,80.15
2023-02-23T18:12:33.353Z,80.85
2023-02-23T18:14:04.983Z,80.86
2023-02-23T18:15:36.698Z,80.94
2023-02-23T18:17:08.549Z,81.46
2023-02-23T18:18:44.356Z,81.27
2023-02-23T18:20:17.159Z,81.00
2023-02-23T18:21:48.897Z,81.75
2023-02-23T18:23:21.321Z,81.63
2023-02-23T18:24:52.965Z,82.17
2023-02-23T18:26:24.797Z,82.53
2023-02-23T18:27:56.651Z,82.10
2023-02-23T18:29:30.448Z,82.69
2023-02-23T18:31:02.396Z,83.19
2023-02-23T18:32:34.179Z,83.15
2023-02-23T18:34:06.617Z,83.28
2023-02-23T18:35:41.766Z,83.73
2023-02-23T18:37:13.356Z,83.18
2023-02-23T18:38:45.227Z,83.47
2023-02-23T18:40:21.496Z,83.43
2023-02-23T18:41:53.339Z,83.27
2023-02-23T18:43:25.045Z,83.42
2023-02-23T18:44:56.745Z,83.43
2023-02-23T18:46:28.888Z,83.67
2023-02-23T18:48:00.836Z,83.03
2023-02-23T18:49:32.641Z,83.62
2023-02-23T18:51:06.938Z,83.39
2023-02-23T18:52:40.775Z,83.63
2023-02-23T18:54:16.752Z,83.76
2023-02-23T18:55:48.295Z,83.78
2023-02-23T18:57:19.918Z,84.18
2023-02-23T18:59:01.711Z,84.40
2023-02-23T19:00:40.146Z,85.35
2023-02-23T19:02:11.969Z,85.36
2023-02-23T19:03:45.235Z,85.37
2023-02-23T19:05:19.538Z,85.54
2023-02-23T19:06:52.419Z,85.59
2023-02-23T19:08:24.148Z,85.41
2023-02-23T19:09:56.135Z,85.47
2023-02-23T19:11:33.491Z,85.95
2023-02-23T19:13:08.825Z,86.38
2023-02-23T19:14:49.207Z,86.89
2023-02-23T19:16:22.518Z,86.34
2023-02-23T19:17:54.418Z,86.73
2023-02-23T19:19:26.813Z,86.29
2023-02-23T19:20:58.604Z,86.25
2023-02-23T19:22:30.502Z,86.61
2023-02-23T19:24:03.125Z,86.87
2023-02-23T19:25:34.896Z,86.71
2023-02-23T19:27:06.603Z,86.82
2023-02-23T19:28:38.412Z,86.44
2023-02-23T19:30:11.322Z,86.50
2023-02-23T19:31:43.200Z,86.57
2023-02-23T19:33:16.528Z,86.93
2023-02-23T19:34:48.395Z,86.81
2023-02-23T19:36:23.346Z,86.82
2023-02-23T19:37:55.013Z,86.54
2023-02-23T19:39:26.729Z,86.19
2023-02-23T19:40:58.627Z,86.27
2023-02-23T19:42:32.774Z,86.05
2023-02-23T19:44:04.727Z,86.43
2023-02-23T19:45:36.598Z,86.20
2023-02-23T19:47:09.554Z,85.29
2023-02-23T19:48:41.422Z,85.80
2023-02-23T19:50:16.753Z,85.51
2023-02-23T19:51:50.673Z,85.89
2023-02-23T19:53:22.545Z,86.49
2023-02-23T19:54:54.492Z,86.85
2023-02-23T19:56:27.972Z,86.83
2023-02-23T19:57:59.736Z,87.05
2023-02-23T19:59:31.396Z,87.47
2023-02-23T20:01:08.545Z,87.90
2023-02-23T20:02:44.178Z,87.95
2023-02-23T20:04:15.900Z,87.95
2023-02-23T20:05:47.721Z,88.08
2023-02-23T20:07:20.305Z,88.07
2023-02-23T20:08:52.675Z,88.44
2023-02-23T20:10:25.921Z,88.62
2023-02-23T20:11:57.633Z,88.27
2023-02-23T20:13:29.389Z,87.98
2023-02-23T20:15:01.663Z,88.59
2023-02-23T20:16:34.296Z,88.57
2023-02-23T20:18:07.377Z,88.73
2023-02-23T20:19:39.389Z,88.89
2023-02-23T20:21:17.222Z,89.08
2023-02-23T20:22:52.841Z,89.57
2023-02-23T20:24:24.670Z,89.76
2023-02-23T20:25:56.342Z,89.75
2023-02-23T20:27:30.049Z,89.10
2023-02-23T20:29:02.576Z,89.36
2023-02-23T20:30:34.783Z,89.24
2023-02-23T20:32:07.296Z,89.53
2023-02-23T20:33:39.194Z,89.41
2023-02-23T20:35:14.650Z,89.67
2023-02-23T20:36:46.743Z,89.79
2023-02-23T20:38:18.758Z,89.66
2023-02-23T20:39:50.481Z,89.23
2023-02-23T20:41:22.777Z,89.51
2023-02-23T20:42:55.286Z,90.22
2023-02-23T20:44:28.140Z,90.01
2023-02-23T20:46:01.043Z,90.03
2023-02-23T20:47:33.540Z,90.45
2023-02-23T20:49:05.283Z,90.85
2023-02-23T20:50:38.069Z,90.93
2023-02-23T20:52:09.853Z,90.97
2023-02-23T20:53:42.219Z,91.10
2023-02-23T20:55:19.231Z,91.10
2023-02-23T20:56:59.343Z,91.52
2023-02-23T20:58:31.306Z,91.78
2023-02-23T21:00:10.076Z,91.85